sensor_id;sensor_type;location;lat;lon;timestamp;temperature;humidity
24164;DHT22;12319;49.204;8.116;2023-02-03T00:02:17;8.90;99.90
24164;DHT22;12319;49.204;8.116;2023-02-03T00:04:42;8.90;99.90
24164;DHT22;12319;49.204;8.116;2023-02-03T00:07:10;8.90;99.90
24164;DHT22;12319;49.204;8.116;2023-02-03T00:09:36;8.90;99.90
24164;DHT22;12319;49.204;8.116;2023-02-03T00:12:02;8.90;99.90
24164;DHT22;12319;49.204;8.116;2023-02-03T00:14:27;8.90;99.90
24164;DHT22;12319;49.204;8.116;2023-02-03T00:16:53;8.90;99.90
24164;DHT22;12319;49.204;8.116;2023-02-03T00:19:19;9.00;99.90
24164;DHT22;12319;49.204;8.116;2023-02-03T00:21:44;8.90;99.90
24164;DHT22;12319;49.204;8.116;2023-02-03T00:24:10;8.90;99.90
24164;DHT22;12319;49.204;8.116;2023-02-03T00:26:40;8.90;99.90
24164;DHT22;12319;49.204;8.116;2023-02-03T00:29:06;8.90;99.90
24164;DHT22;12319;49.204;8.116;2023-02-03T00:31:33;8.90;99.90
24164;DHT22;12319;49.204;8.116;2023-02-03T00:33:59;8.90;99.90
24164;DHT22;12319;49.204;8.116;2023-02-03T00:36:25;9.20;99.90
24164;DHT22;12319;49.204;8.116;2023-02-03T00:38:50;9.00;99.90
24164;DHT22;12319;49.204;8.116;2023-02-03T00:41:17;9.00;99.90
24164;DHT22;12319;49.204;8.116;2023-02-03T00:43:43;9.00;99.90
24164;DHT22;12319;49.204;8.116;2023-02-03T00:46:08;9.00;99.90
24164;DHT22;12319;49.204;8.116;2023-02-03T00:48:34;9.00;99.90
24164;DHT22;12319;49.204;8.116;2023-02-03T00:50:59;9.00;99.90
24164;DHT22;12319;49.204;8.116;2023-02-03T00:53:25;9.00;99.90
24164;DHT22;12319;49.204;8.116;2023-02-03T00:55:50;9.00;99.90
24164;DHT22;12319;49.204;8.116;2023-02-03T00:58:16;9.00;99.90
24164;DHT22;12319;49.204;8.116;2023-02-03T01:00:42;9.00;99.90
24164;DHT22;12319;49.204;8.116;2023-02-03T01:03:07;9.00;99.90
24164;DHT22;12319;49.204;8.116;2023-02-03T01:05:33;9.00;99.90
24164;DHT22;12319;49.204;8.116;2023-02-03T01:08:00;9.00;99.90
24164;DHT22;12319;49.204;8.116;2023-02-03T01:10:25;9.00;99.90
24164;DHT22;12319;49.204;8.116;2023-02-03T01:12:51;9.00;99.90
24164;DHT22;12319;49.204;8.116;2023-02-03T01:15:17;9.00;99.90
24164;DHT22;12319;49.204;8.116;2023-02-03T01:17:43;9.00;99.90
24164;DHT22;12319;49.204;8.116;2023-02-03T01:20:09;9.00;99.90
24164;DHT22;12319;49.204;8.116;2023-02-03T01:22:36;9.00;99.90
24164;DHT22;12319;49.204;8.116;2023-02-03T01:25:02;8.90;99.90
24164;DHT22;12319;49.204;8.116;2023-02-03T01:27:28;8.90;99.90
24164;DHT22;12319;49.204;8.116;2023-02-03T01:29:53;9.00;99.90
24164;DHT22;12319;49.204;8.116;2023-02-03T01:32:19;9.00;99.90
24164;DHT22;12319;49.204;8.116;2023-02-03T01:34:44;9.00;99.90
24164;DHT22;12319;49.204;8.116;2023-02-03T01:37:10;9.00;99.90
24164;DHT22;12319;49.204;8.116;2023-02-03T01:39:36;9.00;99.90
24164;DHT22;12319;49.204;8.116;2023-02-03T01:42:01;9.00;99.90
24164;DHT22;12319;49.204;8.116;2023-02-03T01:44:45;9.00;99.90
24164;DHT22;12319;49.204;8.116;2023-02-03T01:47:22;9.00;99.90
24164;DHT22;12319;49.204;8.116;2023-02-03T01:52:22;9.00;99.90
24164;DHT22;12319;49.204;8.116;2023-02-03T01:54:49;9.00;99.90
24164;DHT22;12319;49.204;8.116;2023-02-03T01:57:22;9.00;99.90
24164;DHT22;12319;49.204;8.116;2023-02-03T01:59:50;8.90;99.90
24164;DHT22;12319;49.204;8.116;2023-02-03T02:02:16;9.00;99.90
24164;DHT22;12319;49.204;8.116;2023-02-03T02:04:52;9.00;99.90
24164;DHT22;12319;49.204;8.116;2023-02-03T02:07:19;8.90;99.90
24164;DHT22;12319;49.204;8.116;2023-02-03T02:09:45;8.90;99.90
24164;DHT22;12319;49.204;8.116;2023-02-03T02:12:11;9.00;99.90
24164;DHT22;12319;49.204;8.116;2023-02-03T02:14:38;8.90;99.90
24164;DHT22;12319;49.204;8.116;2023-02-03T02:17:25;8.90;99.90
24164;DHT22;12319;49.204;8.116;2023-02-03T02:20:23;8.90;99.90
24164;DHT22;12319;49.204;8.116;2023-02-03T02:34:41;8.90;99.90
24164;DHT22;12319;49.204;8.116;2023-02-03T02:37:53;8.90;99.90
24164;DHT22;12319;49.204;8.116;2023-02-03T02:40:24;8.90;99.90
24164;DHT22;12319;49.204;8.116;2023-02-03T02:43:05;8.90;99.90
24164;DHT22;12319;49.204;8.116;2023-02-03T02:45:49;8.80;99.90
24164;DHT22;12319;49.204;8.116;2023-02-03T02:48:28;8.90;99.90
24164;DHT22;12319;49.204;8.116;2023-02-03T02:50:57;8.90;99.90
24164;DHT22;12319;49.204;8.116;2023-02-03T02:53:27;8.90;99.90
24164;DHT22;12319;49.204;8.116;2023-02-03T02:55:55;8.90;99.90
24164;DHT22;12319;49.204;8.116;2023-02-03T02:58:22;8.90;99.90
24164;DHT22;12319;49.204;8.116;2023-02-03T03:00:48;8.90;99.90
24164;DHT22;12319;49.204;8.116;2023-02-03T03:03:16;8.90;99.90
24164;DHT22;12319;49.204;8.116;2023-02-03T03:05:51;8.90;99.90
24164;DHT22;12319;49.204;8.116;2023-02-03T03:08:20;8.90;99.90
24164;DHT22;12319;49.204;8.116;2023-02-03T03:10:47;8.90;99.90
24164;DHT22;12319;49.204;8.116;2023-02-03T03:13:18;9.00;99.90
24164;DHT22;12319;49.204;8.116;2023-02-03T03:15:47;9.00;99.90
24164;DHT22;12319;49.204;8.116;2023-02-03T03:18:21;9.00;99.90
24164;DHT22;12319;49.204;8.116;2023-02-03T03:20:49;9.00;99.90
24164;DHT22;12319;49.204;8.116;2023-02-03T03:23:23;9.00;99.90
24164;DHT22;12319;49.204;8.116;2023-02-03T03:26:08;9.00;99.90
24164;DHT22;12319;49.204;8.116;2023-02-03T03:29:28;9.00;99.90
24164;DHT22;12319;49.204;8.116;2023-02-03T03:31:32;9.00;99.90
24164;DHT22;12319;49.204;8.116;2023-02-03T03:33:58;9.10;99.90
24164;DHT22;12319;49.204;8.116;2023-02-03T03:36:31;9.00;99.90
24164;DHT22;12319;49.204;8.116;2023-02-03T03:42:31;9.00;99.90
24164;DHT22;12319;49.204;8.116;2023-02-03T03:50:17;9.00;99.90
24164;DHT22;12319;49.204;8.116;2023-02-03T03:52:44;9.00;99.90
24164;DHT22;12319;49.204;8.116;2023-02-03T03:55:11;9.00;99.90
24164;DHT22;12319;49.204;8.116;2023-02-03T03:57:39;9.00;99.90
24164;DHT22;12319;49.204;8.116;2023-02-03T04:00:10;9.00;99.90
24164;DHT22;12319;49.204;8.116;2023-02-03T04:02:39;9.00;99.90
24164;DHT22;12319;49.204;8.116;2023-02-03T04:05:08;9.00;99.90
24164;DHT22;12319;49.204;8.116;2023-02-03T04:07:42;9.00;99.90
24164;DHT22;12319;49.204;8.116;2023-02-03T04:12:47;9.00;99.90
24164;DHT22;12319;49.204;8.116;2023-02-03T04:15:12;9.00;99.90
24164;DHT22;12319;49.204;8.116;2023-02-03T04:17:38;9.00;99.90
24164;DHT22;12319;49.204;8.116;2023-02-03T04:20:04;9.00;99.90
24164;DHT22;12319;49.204;8.116;2023-02-03T04:22:30;9.00;99.90
24164;DHT22;12319;49.204;8.116;2023-02-03T04:24:55;9.00;99.90
24164;DHT22;12319;49.204;8.116;2023-02-03T04:27:26;9.00;99.90
24164;DHT22;12319;49.204;8.116;2023-02-03T04:29:52;9.00;99.90
24164;DHT22;12319;49.204;8.116;2023-02-03T04:32:18;9.00;99.90
24164;DHT22;12319;49.204;8.116;2023-02-03T04:34:44;9.00;99.90
24164;DHT22;12319;49.204;8.116;2023-02-03T04:37:10;9.00;99.90
24164;DHT22;12319;49.204;8.116;2023-02-03T04:39:35;9.00;99.90
24164;DHT22;12319;49.204;8.116;2023-02-03T04:42:01;9.10;99.90
24164;DHT22;12319;49.204;8.116;2023-02-03T04:44:26;9.10;99.90
24164;DHT22;12319;49.204;8.116;2023-02-03T04:46:52;9.10;99.90
24164;DHT22;12319;49.204;8.116;2023-02-03T04:49:17;9.10;99.90
24164;DHT22;12319;49.204;8.116;2023-02-03T04:51:43;9.10;99.90
24164;DHT22;12319;49.204;8.116;2023-02-03T04:54:09;9.10;99.90
24164;DHT22;12319;49.204;8.116;2023-02-03T04:56:35;9.10;99.90
24164;DHT22;12319;49.204;8.116;2023-02-03T04:59:01;9.10;99.90
24164;DHT22;12319;49.204;8.116;2023-02-03T05:01:27;9.10;99.90
24164;DHT22;12319;49.204;8.116;2023-02-03T05:03:52;9.00;99.90
24164;DHT22;12319;49.204;8.116;2023-02-03T05:06:25;9.00;99.90
24164;DHT22;12319;49.204;8.116;2023-02-03T05:08:52;9.00;99.90
24164;DHT22;12319;49.204;8.116;2023-02-03T05:11:17;9.00;99.90
24164;DHT22;12319;49.204;8.116;2023-02-03T05:13:43;9.00;99.90
24164;DHT22;12319;49.204;8.116;2023-02-03T05:16:08;9.00;99.90
24164;DHT22;12319;49.204;8.116;2023-02-03T05:18:34;9.00;99.90
24164;DHT22;12319;49.204;8.116;2023-02-03T05:21:00;9.00;99.90
24164;DHT22;12319;49.204;8.116;2023-02-03T05:23:25;9.00;99.90
24164;DHT22;12319;49.204;8.116;2023-02-03T05:25:51;8.90;99.90
24164;DHT22;12319;49.204;8.116;2023-02-03T05:28:16;9.00;99.90
24164;DHT22;12319;49.204;8.116;2023-02-03T05:30:42;8.90;99.90
24164;DHT22;12319;49.204;8.116;2023-02-03T05:33:08;8.90;99.90
24164;DHT22;12319;49.204;8.116;2023-02-03T05:35:33;8.90;99.90
24164;DHT22;12319;49.204;8.116;2023-02-03T05:37:59;8.90;99.90
24164;DHT22;12319;49.204;8.116;2023-02-03T05:40:25;8.90;99.90
24164;DHT22;12319;49.204;8.116;2023-02-03T05:43:09;8.90;99.90
24164;DHT22;12319;49.204;8.116;2023-02-03T05:45:35;8.90;99.90
24164;DHT22;12319;49.204;8.116;2023-02-03T05:48:00;8.90;99.90
24164;DHT22;12319;49.204;8.116;2023-02-03T05:50:30;8.90;99.90
24164;DHT22;12319;49.204;8.116;2023-02-03T05:52:59;8.90;99.90
24164;DHT22;12319;49.204;8.116;2023-02-03T05:55:25;8.80;99.90
24164;DHT22;12319;49.204;8.116;2023-02-03T05:57:51;8.80;99.90
24164;DHT22;12319;49.204;8.116;2023-02-03T06:00:17;8.80;99.90
24164;DHT22;12319;49.204;8.116;2023-02-03T06:02:42;8.80;99.90
24164;DHT22;12319;49.204;8.116;2023-02-03T06:05:08;8.80;99.90
24164;DHT22;12319;49.204;8.116;2023-02-03T06:07:34;8.80;99.90
24164;DHT22;12319;49.204;8.116;2023-02-03T06:09:59;8.90;99.90
24164;DHT22;12319;49.204;8.116;2023-02-03T06:12:28;8.90;99.90
24164;DHT22;12319;49.204;8.116;2023-02-03T06:14:53;9.00;99.90
24164;DHT22;12319;49.204;8.116;2023-02-03T06:17:19;8.90;99.90
24164;DHT22;12319;49.204;8.116;2023-02-03T06:19:44;8.90;99.90
24164;DHT22;12319;49.204;8.116;2023-02-03T06:22:10;8.90;99.90
24164;DHT22;12319;49.204;8.116;2023-02-03T06:24:35;8.80;99.90
24164;DHT22;12319;49.204;8.116;2023-02-03T06:27:01;8.90;99.90
24164;DHT22;12319;49.204;8.116;2023-02-03T06:29:26;8.90;99.90
24164;DHT22;12319;49.204;8.116;2023-02-03T06:31:52;8.80;99.90
24164;DHT22;12319;49.204;8.116;2023-02-03T06:34:17;8.80;99.90
24164;DHT22;12319;49.204;8.116;2023-02-03T06:36:43;8.80;99.90
24164;DHT22;12319;49.204;8.116;2023-02-03T06:39:08;8.80;99.90
24164;DHT22;12319;49.204;8.116;2023-02-03T06:41:34;8.80;99.90
24164;DHT22;12319;49.204;8.116;2023-02-03T06:43:59;8.80;99.90
24164;DHT22;12319;49.204;8.116;2023-02-03T06:46:25;8.80;99.90
24164;DHT22;12319;49.204;8.116;2023-02-03T06:48:54;8.80;99.90
24164;DHT22;12319;49.204;8.116;2023-02-03T06:51:19;8.80;99.90
24164;DHT22;12319;49.204;8.116;2023-02-03T06:53:45;8.80;99.90
24164;DHT22;12319;49.204;8.116;2023-02-03T06:56:10;8.80;99.90
24164;DHT22;12319;49.204;8.116;2023-02-03T06:58:36;8.80;99.90
24164;DHT22;12319;49.204;8.116;2023-02-03T07:01:02;8.80;99.90
24164;DHT22;12319;49.204;8.116;2023-02-03T07:03:27;8.80;99.90
24164;DHT22;12319;49.204;8.116;2023-02-03T07:05:53;8.70;99.90
24164;DHT22;12319;49.204;8.116;2023-02-03T07:08:18;8.70;99.90
24164;DHT22;12319;49.204;8.116;2023-02-03T07:10:44;8.70;99.90
24164;DHT22;12319;49.204;8.116;2023-02-03T07:13:10;8.70;99.90
24164;DHT22;12319;49.204;8.116;2023-02-03T07:15:35;8.70;99.90
24164;DHT22;12319;49.204;8.116;2023-02-03T07:18:01;8.70;99.90
24164;DHT22;12319;49.204;8.116;2023-02-03T07:20:27;8.60;99.90
24164;DHT22;12319;49.204;8.116;2023-02-03T07:22:57;8.60;99.90
24164;DHT22;12319;49.204;8.116;2023-02-03T07:25:24;8.60;99.90
24164;DHT22;12319;49.204;8.116;2023-02-03T07:27:49;8.60;99.90
24164;DHT22;12319;49.204;8.116;2023-02-03T07:30:15;8.60;99.90
24164;DHT22;12319;49.204;8.116;2023-02-03T07:32:45;8.70;99.90
24164;DHT22;12319;49.204;8.116;2023-02-03T07:35:14;8.60;99.90
24164;DHT22;12319;49.204;8.116;2023-02-03T07:37:42;8.60;99.90
24164;DHT22;12319;49.204;8.116;2023-02-03T07:40:14;8.60;99.90
24164;DHT22;12319;49.204;8.116;2023-02-03T07:42:41;8.60;99.90
24164;DHT22;12319;49.204;8.116;2023-02-03T07:45:08;8.70;99.90
24164;DHT22;12319;49.204;8.116;2023-02-03T07:47:34;8.70;99.90
24164;DHT22;12319;49.204;8.116;2023-02-03T07:50:00;8.70;99.90
24164;DHT22;12319;49.204;8.116;2023-02-03T07:52:25;8.70;99.90
24164;DHT22;12319;49.204;8.116;2023-02-03T07:54:51;8.70;99.90
24164;DHT22;12319;49.204;8.116;2023-02-03T07:57:16;8.70;99.90
24164;DHT22;12319;49.204;8.116;2023-02-03T07:59:42;8.80;99.90
24164;DHT22;12319;49.204;8.116;2023-02-03T08:02:08;8.80;99.90
24164;DHT22;12319;49.204;8.116;2023-02-03T08:04:35;8.80;99.90
24164;DHT22;12319;49.204;8.116;2023-02-03T08:07:01;8.80;99.90
24164;DHT22;12319;49.204;8.116;2023-02-03T08:09:26;8.80;99.90
24164;DHT22;12319;49.204;8.116;2023-02-03T08:11:52;8.90;99.90
24164;DHT22;12319;49.204;8.116;2023-02-03T08:14:17;8.90;99.90
24164;DHT22;12319;49.204;8.116;2023-02-03T08:16:43;8.90;99.90
24164;DHT22;12319;49.204;8.116;2023-02-03T08:19:09;8.90;99.90
24164;DHT22;12319;49.204;8.116;2023-02-03T08:21:35;8.90;99.90
24164;DHT22;12319;49.204;8.116;2023-02-03T08:24:00;9.00;99.90
24164;DHT22;12319;49.204;8.116;2023-02-03T08:26:26;9.00;99.90
24164;DHT22;12319;49.204;8.116;2023-02-03T08:28:51;9.00;99.90
24164;DHT22;12319;49.204;8.116;2023-02-03T08:31:17;8.90;99.90
24164;DHT22;12319;49.204;8.116;2023-02-03T08:33:43;8.90;99.90
24164;DHT22;12319;49.204;8.116;2023-02-03T08:36:09;8.90;99.90
24164;DHT22;12319;49.204;8.116;2023-02-03T08:41:14;9.00;99.90
24164;DHT22;12319;49.204;8.116;2023-02-03T08:43:40;9.00;99.90
24164;DHT22;12319;49.204;8.116;2023-02-03T08:46:08;9.00;99.90
24164;DHT22;12319;49.204;8.116;2023-02-03T08:48:34;9.00;99.90
24164;DHT22;12319;49.204;8.116;2023-02-03T08:51:00;9.00;99.90
24164;DHT22;12319;49.204;8.116;2023-02-03T08:53:25;9.00;99.90
24164;DHT22;12319;49.204;8.116;2023-02-03T08:55:51;9.00;99.90
24164;DHT22;12319;49.204;8.116;2023-02-03T08:58:17;9.00;99.90
24164;DHT22;12319;49.204;8.116;2023-02-03T09:00:43;9.00;99.90
24164;DHT22;12319;49.204;8.116;2023-02-03T09:03:08;9.00;99.90
24164;DHT22;12319;49.204;8.116;2023-02-03T09:05:34;9.10;99.90
24164;DHT22;12319;49.204;8.116;2023-02-03T09:08:01;9.20;99.90
24164;DHT22;12319;49.204;8.116;2023-02-03T09:10:26;9.20;99.90
24164;DHT22;12319;49.204;8.116;2023-02-03T09:12:52;9.20;99.90
24164;DHT22;12319;49.204;8.116;2023-02-03T09:15:17;9.20;99.90
24164;DHT22;12319;49.204;8.116;2023-02-03T09:17:43;9.30;99.90
24164;DHT22;12319;49.204;8.116;2023-02-03T09:20:10;9.40;99.90
24164;DHT22;12319;49.204;8.116;2023-02-03T09:22:39;9.50;99.90
24164;DHT22;12319;49.204;8.116;2023-02-03T09:25:05;9.50;99.90
24164;DHT22;12319;49.204;8.116;2023-02-03T09:27:31;9.50;99.90
24164;DHT22;12319;49.204;8.116;2023-02-03T09:29:57;9.60;99.90
24164;DHT22;12319;49.204;8.116;2023-02-03T09:32:23;9.60;99.90
24164;DHT22;12319;49.204;8.116;2023-02-03T09:34:48;9.60;99.90
24164;DHT22;12319;49.204;8.116;2023-02-03T09:37:14;9.70;99.90
24164;DHT22;12319;49.204;8.116;2023-02-03T09:39:39;9.70;99.90
24164;DHT22;12319;49.204;8.116;2023-02-03T09:47:28;9.60;99.90
24164;DHT22;12319;49.204;8.116;2023-02-03T09:49:59;9.60;99.90
24164;DHT22;12319;49.204;8.116;2023-02-03T09:52:28;9.60;99.90
24164;DHT22;12319;49.204;8.116;2023-02-03T09:58:11;9.60;99.90
24164;DHT22;12319;49.204;8.116;2023-02-03T10:00:46;9.60;99.90
24164;DHT22;12319;49.204;8.116;2023-02-03T10:17:07;9.90;99.90
24164;DHT22;12319;49.204;8.116;2023-02-03T10:19:41;9.90;99.90
24164;DHT22;12319;49.204;8.116;2023-02-03T10:22:12;9.90;99.90
24164;DHT22;12319;49.204;8.116;2023-02-03T10:24:52;9.80;99.90
24164;DHT22;12319;49.204;8.116;2023-02-03T10:27:21;9.90;99.90
24164;DHT22;12319;49.204;8.116;2023-02-03T10:30:17;10.00;99.90
24164;DHT22;12319;49.204;8.116;2023-02-03T10:32:43;10.10;99.90
24164;DHT22;12319;49.204;8.116;2023-02-03T10:35:12;10.20;99.90
24164;DHT22;12319;49.204;8.116;2023-02-03T10:37:44;10.20;99.90
24164;DHT22;12319;49.204;8.116;2023-02-03T10:40:15;10.30;99.90
24164;DHT22;12319;49.204;8.116;2023-02-03T10:42:46;10.40;99.90
24164;DHT22;12319;49.204;8.116;2023-02-03T10:45:35;10.50;99.90
24164;DHT22;12319;49.204;8.116;2023-02-03T10:48:02;10.50;99.90
24164;DHT22;12319;49.204;8.116;2023-02-03T10:50:28;10.50;99.90
24164;DHT22;12319;49.204;8.116;2023-02-03T10:55:44;10.40;99.90
24164;DHT22;12319;49.204;8.116;2023-02-03T10:58:16;10.40;99.90
24164;DHT22;12319;49.204;8.116;2023-02-03T11:00:53;10.40;99.90
24164;DHT22;12319;49.204;8.116;2023-02-03T11:03:22;10.30;99.90
24164;DHT22;12319;49.204;8.116;2023-02-03T11:06:04;10.20;99.90
24164;DHT22;12319;49.204;8.116;2023-02-03T11:08:30;10.20;99.90
24164;DHT22;12319;49.204;8.116;2023-02-03T11:11:13;10.10;99.90
24164;DHT22;12319;49.204;8.116;2023-02-03T11:13:39;10.10;99.90
24164;DHT22;12319;49.204;8.116;2023-02-03T11:16:05;10.10;99.90
24164;DHT22;12319;49.204;8.116;2023-02-03T11:21:53;10.20;99.90
24164;DHT22;12319;49.204;8.116;2023-02-03T11:24:30;10.30;99.90
24164;DHT22;12319;49.204;8.116;2023-02-03T11:27:03;10.30;99.90
24164;DHT22;12319;49.204;8.116;2023-02-03T11:29:39;10.30;99.90
24164;DHT22;12319;49.204;8.116;2023-02-03T11:35:12;10.30;99.90
24164;DHT22;12319;49.204;8.116;2023-02-03T11:37:41;10.30;99.90
24164;DHT22;12319;49.204;8.116;2023-02-03T11:42:38;10.30;99.90
24164;DHT22;12319;49.204;8.116;2023-02-03T11:47:58;10.20;99.90
24164;DHT22;12319;49.204;8.116;2023-02-03T11:53:24;10.20;99.90
24164;DHT22;12319;49.204;8.116;2023-02-03T11:56:09;10.20;99.90
24164;DHT22;12319;49.204;8.116;2023-02-03T12:04:25;10.10;99.90
24164;DHT22;12319;49.204;8.116;2023-02-03T12:10:20;10.10;99.90
24164;DHT22;12319;49.204;8.116;2023-02-03T12:16:02;10.10;99.90
24164;DHT22;12319;49.204;8.116;2023-02-03T12:21:40;10.10;99.90
24164;DHT22;12319;49.204;8.116;2023-02-03T12:29:58;10.00;99.90
24164;DHT22;12319;49.204;8.116;2023-02-03T12:35:14;9.90;99.90
24164;DHT22;12319;49.204;8.116;2023-02-03T12:37:47;9.90;99.90
24164;DHT22;12319;49.204;8.116;2023-02-03T12:40:38;9.80;99.90
24164;DHT22;12319;49.204;8.116;2023-02-03T12:45:41;9.90;99.90
24164;DHT22;12319;49.204;8.116;2023-02-03T12:48:14;9.90;99.90
24164;DHT22;12319;49.204;8.116;2023-02-03T12:50:44;9.90;99.90
24164;DHT22;12319;49.204;8.116;2023-02-03T12:55:54;10.00;99.90
24164;DHT22;12319;49.204;8.116;2023-02-03T12:58:29;10.10;99.90
24164;DHT22;12319;49.204;8.116;2023-02-03T13:00:57;10.20;99.90
24164;DHT22;12319;49.204;8.116;2023-02-03T13:06:12;10.30;99.90
24164;DHT22;12319;49.204;8.116;2023-02-03T13:08:49;10.40;99.90
24164;DHT22;12319;49.204;8.116;2023-02-03T13:11:36;10.50;99.90
24164;DHT22;12319;49.204;8.116;2023-02-03T13:14:13;10.50;99.90
24164;DHT22;12319;49.204;8.116;2023-02-03T13:16:43;10.50;99.90
24164;DHT22;12319;49.204;8.116;2023-02-03T13:19:15;10.50;99.90
24164;DHT22;12319;49.204;8.116;2023-02-03T13:21:42;10.50;99.90
24164;DHT22;12319;49.204;8.116;2023-02-03T13:24:09;10.50;99.90
24164;DHT22;12319;49.204;8.116;2023-02-03T13:26:54;10.50;99.90
24164;DHT22;12319;49.204;8.116;2023-02-03T13:34:53;10.50;99.90
24164;DHT22;12319;49.204;8.116;2023-02-03T13:40:53;10.50;99.90
24164;DHT22;12319;49.204;8.116;2023-02-03T13:43:31;10.50;99.90
24164;DHT22;12319;49.204;8.116;2023-02-03T13:45:58;10.40;99.90
24164;DHT22;12319;49.204;8.116;2023-02-03T13:48:30;10.40;99.90
24164;DHT22;12319;49.204;8.116;2023-02-03T13:51:12;10.40;99.90
24164;DHT22;12319;49.204;8.116;2023-02-03T13:53:40;10.30;99.90
24164;DHT22;12319;49.204;8.116;2023-02-03T13:56:23;10.30;99.90
24164;DHT22;12319;49.204;8.116;2023-02-03T14:01:41;10.20;99.90
24164;DHT22;12319;49.204;8.116;2023-02-03T14:25:24;10.00;99.90
24164;DHT22;12319;49.204;8.116;2023-02-03T14:28:04;10.10;99.90
24164;DHT22;12319;49.204;8.116;2023-02-03T14:30:30;10.00;99.90
24164;DHT22;12319;49.204;8.116;2023-02-03T14:33:01;10.00;99.90
24164;DHT22;12319;49.204;8.116;2023-02-03T14:35:37;9.90;99.90
24164;DHT22;12319;49.204;8.116;2023-02-03T14:38:12;9.90;99.90
24164;DHT22;12319;49.204;8.116;2023-02-03T14:41:01;9.90;99.90
24164;DHT22;12319;49.204;8.116;2023-02-03T14:57:50;9.90;99.90
24164;DHT22;12319;49.204;8.116;2023-02-03T15:05:57;9.80;99.90
24164;DHT22;12319;49.204;8.116;2023-02-03T15:08:43;9.80;99.90
24164;DHT22;12319;49.204;8.116;2023-02-03T15:11:41;9.80;99.90
24164;DHT22;12319;49.204;8.116;2023-02-03T15:14:29;9.70;99.90
24164;DHT22;12319;49.204;8.116;2023-02-03T15:17:44;10.40;99.90
24164;DHT22;12319;49.204;8.116;2023-02-03T15:20:55;9.70;99.90
24164;DHT22;12319;49.204;8.116;2023-02-03T15:23:47;9.70;99.90
24164;DHT22;12319;49.204;8.116;2023-02-03T15:30:24;9.70;99.90
24164;DHT22;12319;49.204;8.116;2023-02-03T15:33:16;9.70;99.90
24164;DHT22;12319;49.204;8.116;2023-02-03T15:35:48;9.70;99.90
24164;DHT22;12319;49.204;8.116;2023-02-03T15:38:26;9.70;99.90
24164;DHT22;12319;49.204;8.116;2023-02-03T15:40:55;9.70;99.90
24164;DHT22;12319;49.204;8.116;2023-02-03T15:43:55;9.70;99.90
24164;DHT22;12319;49.204;8.116;2023-02-03T15:46:31;9.60;99.90
24164;DHT22;12319;49.204;8.116;2023-02-03T15:54:29;9.50;99.90
24164;DHT22;12319;49.204;8.116;2023-02-03T15:57:22;9.50;99.90
24164;DHT22;12319;49.204;8.116;2023-02-03T15:59:57;9.60;99.90
24164;DHT22;12319;49.204;8.116;2023-02-03T16:02:42;9.60;99.90
24164;DHT22;12319;49.204;8.116;2023-02-03T16:05:26;9.50;99.90
24164;DHT22;12319;49.204;8.116;2023-02-03T16:07:54;9.60;99.90
24164;DHT22;12319;49.204;8.116;2023-02-03T16:10:31;9.60;99.90
24164;DHT22;12319;49.204;8.116;2023-02-03T16:13:32;9.60;99.90
24164;DHT22;12319;49.204;8.116;2023-02-03T16:16:05;9.60;99.90
24164;DHT22;12319;49.204;8.116;2023-02-03T16:18:34;9.60;99.90
24164;DHT22;12319;49.204;8.116;2023-02-03T16:21:03;9.60;99.90
24164;DHT22;12319;49.204;8.116;2023-02-03T16:23:29;9.50;99.90
24164;DHT22;12319;49.204;8.116;2023-02-03T16:26:17;9.60;99.90
24164;DHT22;12319;49.204;8.116;2023-02-03T16:28:44;9.60;99.90
24164;DHT22;12319;49.204;8.116;2023-02-03T16:31:42;9.50;99.90
24164;DHT22;12319;49.204;8.116;2023-02-03T16:34:28;9.50;99.90
24164;DHT22;12319;49.204;8.116;2023-02-03T16:37:23;9.50;99.90
24164;DHT22;12319;49.204;8.116;2023-02-03T16:40:10;9.50;99.90
24164;DHT22;12319;49.204;8.116;2023-02-03T16:42:55;9.50;99.90
24164;DHT22;12319;49.204;8.116;2023-02-03T16:45:39;9.50;99.90
24164;DHT22;12319;49.204;8.116;2023-02-03T16:48:23;9.40;99.90
24164;DHT22;12319;49.204;8.116;2023-02-03T16:51:14;9.40;99.90
24164;DHT22;12319;49.204;8.116;2023-02-03T16:53:42;9.40;99.90
24164;DHT22;12319;49.204;8.116;2023-02-03T16:56:08;9.30;99.90
24164;DHT22;12319;49.204;8.116;2023-02-03T16:58:35;9.60;99.90
24164;DHT22;12319;49.204;8.116;2023-02-03T17:01:01;9.40;99.90
24164;DHT22;12319;49.204;8.116;2023-02-03T17:03:28;9.40;99.90
24164;DHT22;12319;49.204;8.116;2023-02-03T17:05:55;9.30;99.90
24164;DHT22;12319;49.204;8.116;2023-02-03T17:08:23;9.30;99.90
24164;DHT22;12319;49.204;8.116;2023-02-03T17:10:50;9.30;99.90
24164;DHT22;12319;49.204;8.116;2023-02-03T17:13:17;9.30;99.90
24164;DHT22;12319;49.204;8.116;2023-02-03T17:15:45;9.30;99.90
24164;DHT22;12319;49.204;8.116;2023-02-03T17:18:12;9.30;99.90
24164;DHT22;12319;49.204;8.116;2023-02-03T17:20:40;9.40;99.90
24164;DHT22;12319;49.204;8.116;2023-02-03T17:23:06;9.40;99.90
24164;DHT22;12319;49.204;8.116;2023-02-03T17:25:33;9.40;99.90
24164;DHT22;12319;49.204;8.116;2023-02-03T17:28:04;9.40;99.90
24164;DHT22;12319;49.204;8.116;2023-02-03T17:30:30;9.40;99.90
24164;DHT22;12319;49.204;8.116;2023-02-03T17:33:00;9.40;99.90
24164;DHT22;12319;49.204;8.116;2023-02-03T17:35:26;9.50;99.90
24164;DHT22;12319;49.204;8.116;2023-02-03T17:37:52;9.50;99.90
24164;DHT22;12319;49.204;8.116;2023-02-03T17:40:19;9.50;99.90
24164;DHT22;12319;49.204;8.116;2023-02-03T17:42:44;9.50;99.90
24164;DHT22;12319;49.204;8.116;2023-02-03T17:45:10;9.50;99.90
24164;DHT22;12319;49.204;8.116;2023-02-03T17:47:35;9.60;99.90
24164;DHT22;12319;49.204;8.116;2023-02-03T17:50:01;9.60;99.90
24164;DHT22;12319;49.204;8.116;2023-02-03T17:52:26;9.60;99.90
24164;DHT22;12319;49.204;8.116;2023-02-03T17:54:52;9.60;99.90
24164;DHT22;12319;49.204;8.116;2023-02-03T17:57:20;9.60;99.90
24164;DHT22;12319;49.204;8.116;2023-02-03T17:59:46;9.60;99.90
24164;DHT22;12319;49.204;8.116;2023-02-03T18:02:11;9.60;99.90
24164;DHT22;12319;49.204;8.116;2023-02-03T18:04:37;9.50;99.90
24164;DHT22;12319;49.204;8.116;2023-02-03T18:07:02;9.60;99.90
24164;DHT22;12319;49.204;8.116;2023-02-03T18:09:29;9.50;99.90
24164;DHT22;12319;49.204;8.116;2023-02-03T18:11:54;9.60;99.90
24164;DHT22;12319;49.204;8.116;2023-02-03T18:14:20;9.60;99.90
24164;DHT22;12319;49.204;8.116;2023-02-03T18:16:46;9.60;99.90
24164;DHT22;12319;49.204;8.116;2023-02-03T18:19:14;9.50;99.90
24164;DHT22;12319;49.204;8.116;2023-02-03T18:21:41;9.60;99.90
24164;DHT22;12319;49.204;8.116;2023-02-03T18:24:08;9.50;99.90
24164;DHT22;12319;49.204;8.116;2023-02-03T18:26:34;9.60;99.90
24164;DHT22;12319;49.204;8.116;2023-02-03T18:29:05;9.50;99.90
24164;DHT22;12319;49.204;8.116;2023-02-03T18:31:30;9.60;99.90
24164;DHT22;12319;49.204;8.116;2023-02-03T18:34:00;9.60;99.90
24164;DHT22;12319;49.204;8.116;2023-02-03T18:36:25;9.60;99.90
24164;DHT22;12319;49.204;8.116;2023-02-03T18:38:51;9.60;99.90
24164;DHT22;12319;49.204;8.116;2023-02-03T18:41:21;9.50;99.90
24164;DHT22;12319;49.204;8.116;2023-02-03T18:43:48;9.60;99.90
24164;DHT22;12319;49.204;8.116;2023-02-03T18:46:22;9.60;99.90